Bloomington Springs, Tennessee
Current Conditions -  °F | °C
As of 4:35 PM on Friday 19 Dec 2014 (Local Time) from KSRB Reporting Station
Clear Clear  
Wind Chill: 37°   Ceiling: Unl
Heat Index: 37°   Visibility: 10mi
Dew Point: 30°   Wind: 3mph
Humidity: 75%   Direction: 360°N
Pressure: 30.2"   Gusts: NA
Location:  36.2°N, 85.62°W
Report Text: KSRB 192235Z AUTO 36003KT 10SM CLR 03/M01 A3020 RMK
Loading
Personal Weather Stations






























Interactive Weather Map New forecast layout! Learn more

10-Day Weather Forecast

Advertisements
Track Severe Weather on mobile